Time;durP1;ratioP1;P1;durP2;ratioP2;P2;SDS_P1;SDS_P2;PMS_P1;PMS_P2;Temp;Humidity;BMP_temperature;BMP_pressure;BME280_temperature;BME280_humidity;BME280_pressure;Samples;Min_cycle;Max_cycle;Signal;HPM_P1;HPM_P2
2021/01/24 00:01:23;;;;;;;5.07;2.43;;;5.20;99.90;;;;;;5025893;28;20198;-89
2021/01/24 00:03:55;;;;;;;4.20;2.47;;;5.10;99.90;;;;;;5026903;28;20210;-88
2021/01/24 00:06:28;;;;;;;3.67;2.40;;;5.00;99.90;;;;;;5014685;28;20294;-89
2021/01/24 00:08:59;;;;;;;5.10;2.60;;;4.90;99.90;;;;;;5011814;28;20213;-89
2021/01/24 00:11:30;;;;;;;3.20;2.50;;;4.90;99.90;;;;;;5027329;28;20547;-89
2021/01/24 00:14:01;;;;;;;4.10;2.33;;;4.80;99.90;;;;;;5036287;28;20197;-87
2021/01/24 00:16:31;;;;;;;2.90;2.47;;;4.90;99.90;;;;;;5036025;28;20205;-89
2021/01/24 00:19:02;;;;;;;4.67;2.67;;;4.90;99.90;;;;;;5033531;28;20201;-89
2021/01/24 00:21:34;;;;;;;4.13;2.30;;;4.80;99.90;;;;;;5023293;28;20209;-89
2021/01/24 00:24:05;;;;;;;7.03;2.67;;;4.70;99.90;;;;;;5025962;28;20189;-89
2021/01/24 00:26:36;;;;;;;3.60;2.47;;;4.70;99.90;;;;;;5022291;28;20197;-89
2021/01/24 00:29:07;;;;;;;3.43;2.40;;;4.60;99.90;;;;;;5021517;28;20206;-89
2021/01/24 00:31:53;;;;;;;4.63;2.20;;;4.50;99.90;;;;;;5024989;28;20205;-89
2021/01/24 00:34:26;;;;;;;3.50;2.50;;;4.30;99.90;;;;;;5023316;28;20207;-89
2021/01/24 00:36:59;;;;;;;3.97;2.33;;;4.20;99.90;;;;;;5023542;28;20252;-88
2021/01/24 00:39:29;;;;;;;4.57;2.33;;;4.10;99.90;;;;;;5018575;28;20259;-89
2021/01/24 00:42:00;;;;;;;4.07;2.33;;;4.00;99.90;;;;;;5018248;28;20544;-88
2021/01/24 00:44:31;;;;;;;5.20;2.03;;;3.90;99.90;;;;;;5019581;28;20213;-88
2021/01/24 00:47:02;;;;;;;3.23;2.13;;;3.80;99.90;;;;;;5016693;28;20238;-88
2021/01/24 00:49:33;;;;;;;3.30;2.30;;;3.70;99.90;;;;;;5042023;22;20249;-89
2021/01/24 00:52:06;;;;;;;3.93;2.13;;;3.60;99.90;;;;;;5046003;28;20208;-89
2021/01/24 00:54:38;;;;;;;3.67;2.23;;;3.50;99.90;;;;;;5034090;28;20209;-89
2021/01/24 00:57:08;;;;;;;4.37;2.10;;;3.40;99.90;;;;;;5022380;28;20249;-89
2021/01/24 00:59:40;;;;;;;4.07;2.00;;;3.30;99.90;;;;;;5026083;28;20293;-90
2021/01/24 01:02:12;;;;;;;3.33;2.43;;;3.20;99.90;;;;;;5026248;28;20325;-88
2021/01/24 01:04:46;;;;;;;7.40;2.70;;;3.20;99.90;;;;;;5020632;28;20202;-88
2021/01/24 01:07:20;;;;;;;4.53;2.60;;;3.00;99.90;;;;;;5041129;28;20274;-89
2021/01/24 01:09:53;;;;;;;3.73;2.63;;;3.00;99.90;;;;;;5047052;28;20270;-90
2021/01/24 01:12:24;;;;;;;3.73;2.40;;;2.90;99.90;;;;;;5033608;28;20198;-89
2021/01/24 01:14:57;;;;;;;3.30;2.30;;;2.90;99.90;;;;;;5026571;28;20212;-89
2021/01/24 01:17:53;;;;;;;6.13;2.50;;;2.90;99.90;;;;;;5027903;28;20232;-90
2021/01/24 01:20:24;;;;;;;4.57;3.10;;;2.90;99.90;;;;;;5027188;28;20264;-89
2021/01/24 01:28:07;;;;;;;6.63;3.17;;;2.70;99.90;;;;;;5026655;28;20247;-89
2021/01/24 01:30:40;;;;;;;5.37;3.00;;;2.70;99.90;;;;;;5032279;28;20206;-89
2021/01/24 01:33:10;;;;;;;5.70;3.23;;;2.60;99.90;;;;;;5036289;28;20217;-90
2021/01/24 01:35:42;;;;;;;8.93;3.97;;;2.50;99.90;;;;;;5034537;28;20205;-91
2021/01/24 01:38:13;;;;;;;5.13;3.30;;;2.50;99.90;;;;;;5024897;28;20190;-89
2021/01/24 01:40:45;;;;;;;4.87;3.50;;;2.40;99.90;;;;;;5016587;28;20218;-90
2021/01/24 01:43:19;;;;;;;6.70;3.67;;;2.40;99.90;;;;;;5035040;28;20209;-90
2021/01/24 01:45:50;;;;;;;6.40;4.60;;;2.40;99.90;;;;;;5015301;28;20239;-89
2021/01/24 01:48:23;;;;;;;7.90;5.20;;;2.40;99.90;;;;;;5032797;28;20190;-88
2021/01/24 01:50:59;;;;;;;7.83;5.30;;;2.30;99.90;;;;;;5033889;28;20205;-89
2021/01/24 01:53:35;;;;;;;6.93;5.17;;;2.30;99.90;;;;;;5035541;28;20232;-90
2021/01/24 01:56:19;;;;;;;14.10;7.17;;;2.30;99.90;;;;;;5034632;28;20252;-90
2021/01/24 01:59:00;;;;;;;9.97;6.83;;;2.40;99.90;;;;;;5035171;28;20197;-89
2021/01/24 02:01:44;;;;;;;8.57;5.20;;;2.40;99.90;;;;;;5034590;28;20272;-90
2021/01/24 02:04:21;;;;;;;8.00;4.70;;;2.40;99.90;;;;;;5034971;28;20209;-89
2021/01/24 02:07:00;;;;;;;7.23;4.50;;;2.40;99.90;;;;;;5034984;28;20235;-90
2021/01/24 02:12:34;;;;;;;7.50;5.17;;;2.40;99.90;;;;;;5028343;28;20295;-89
2021/01/24 02:15:16;;;;;;;6.83;4.60;;;2.40;99.90;;;;;;5031070;28;20190;-88
2021/01/24 02:17:53;;;;;;;7.57;4.97;;;2.30;99.90;;;;;;5030653;28;20234;-90
2021/01/24 02:20:36;;;;;;;20.90;12.57;;;2.30;99.90;;;;;;5034014;28;20256;-88
2021/01/24 02:23:11;;;;;;;18.33;9.93;;;2.30;99.90;;;;;;5035546;28;20273;-90
2021/01/24 02:25:52;;;;;;;11.70;7.70;;;2.40;99.90;;;;;;4682685;28;9999915;-88
2021/01/24 02:28:30;;;;;;;14.07;9.23;;;2.40;99.90;;;;;;5017430;28;20217;-89
2021/01/24 02:31:04;;;;;;;10.43;6.57;;;2.50;99.90;;;;;;5032859;28;20197;-88
2021/01/24 02:33:39;;;;;;;16.97;11.73;;;2.60;99.90;;;;;;5038213;28;20184;-88
2021/01/24 02:36:12;;;;;;;17.67;10.90;;;2.70;99.90;;;;;;5028160;28;20223;-89
2021/01/24 02:41:19;;;;;;;13.80;9.07;;;2.80;99.90;;;;;;5068460;22;20235;-87
2021/01/24 02:43:51;;;;;;;12.83;7.70;;;2.90;99.90;;;;;;5050812;28;20269;-89
2021/01/24 02:46:30;;;;;;;9.30;6.07;;;2.90;99.90;;;;;;5038787;28;20205;-87
2021/01/24 02:49:09;;;;;;;11.33;7.57;;;3.00;99.90;;;;;;5055512;28;20196;-88
2021/01/24 02:51:41;;;;;;;14.13;7.00;;;3.00;99.90;;;;;;5052138;28;20200;-88
2021/01/24 02:54:13;;;;;;;12.73;8.63;;;3.10;99.90;;;;;;5035744;28;20588;-88
2021/01/24 02:56:44;;;;;;;11.10;5.83;;;3.10;99.90;;;;;;5041712;28;20232;-88
2021/01/24 02:59:16;;;;;;;12.07;4.87;;;3.10;99.90;;;;;;5047685;28;20259;-89
2021/01/24 03:01:48;;;;;;;5.80;4.20;;;3.20;99.90;;;;;;5037451;28;20268;-90
2021/01/24 03:04:19;;;;;;;6.57;4.20;;;3.20;99.90;;;;;;5028716;28;20210;-88
2021/01/24 03:06:49;;;;;;;4.10;3.17;;;3.30;99.90;;;;;;5037025;28;20225;-92
2021/01/24 03:09:21;;;;;;;6.80;3.80;;;3.40;99.90;;;;;;5042855;28;20209;-94
2021/01/24 03:11:53;;;;;;;8.23;3.63;;;3.40;99.90;;;;;;5032459;28;20271;-90
2021/01/24 03:14:27;;;;;;;4.80;3.47;;;3.40;99.90;;;;;;5030615;28;20212;-88
2021/01/24 03:17:02;;;;;;;6.37;3.83;;;3.50;99.90;;;;;;5037257;28;20332;-89
2021/01/24 03:19:35;;;;;;;4.17;3.27;;;3.50;99.90;;;;;;5045133;28;20205;-90
2021/01/24 03:22:09;;;;;;;5.07;3.70;;;3.50;99.90;;;;;;5036675;28;20220;-89
2021/01/24 03:24:41;;;;;;;5.53;3.70;;;3.50;99.90;;;;;;5033451;28;20217;-88
2021/01/24 03:27:12;;;;;;;7.97;4.90;;;3.50;99.90;;;;;;5040535;28;20251;-88
2021/01/24 03:29:44;;;;;;;7.93;5.83;;;3.50;99.90;;;;;;5042912;28;20206;-90
2021/01/24 03:32:23;;;;;;;8.60;6.50;;;3.60;99.90;;;;;;5037421;28;20279;-90
2021/01/24 03:34:54;;;;;;;9.90;6.20;;;3.60;99.90;;;;;;5031286;28;20224;-87
2021/01/24 03:37:25;;;;;;;9.17;6.53;;;3.60;99.90;;;;;;5042220;28;20306;-88
2021/01/24 03:42:40;;;;;;;8.30;4.97;;;3.70;99.90;;;;;;5178177;22;20233;-87
2021/01/24 03:45:13;;;;;;;6.50;4.70;;;3.70;99.90;;;;;;5028420;28;20229;-88
2021/01/24 03:47:47;;;;;;;7.70;4.37;;;3.70;99.90;;;;;;5031957;28;20205;-88
2021/01/24 03:50:20;;;;;;;6.93;4.67;;;3.70;99.90;;;;;;5030380;28;20198;-88
2021/01/24 03:52:51;;;;;;;7.57;4.50;;;3.80;99.90;;;;;;5028348;28;20236;-88
2021/01/24 03:55:24;;;;;;;8.43;4.67;;;3.80;99.90;;;;;;5030660;28;20206;-88
2021/01/24 03:57:54;;;;;;;8.10;5.03;;;3.70;99.90;;;;;;5026881;28;20687;-87
2021/01/24 04:00:25;;;;;;;7.23;4.90;;;3.70;99.90;;;;;;5026353;28;20209;-89
2021/01/24 04:02:57;;;;;;;7.97;5.20;;;3.80;99.90;;;;;;5027486;28;20205;-88
2021/01/24 04:05:28;;;;;;;9.27;6.20;;;3.70;99.90;;;;;;5026636;28;20263;-88
2021/01/24 04:07:59;;;;;;;8.93;5.67;;;3.70;99.90;;;;;;5013449;28;20202;-87
2021/01/24 04:10:30;;;;;;;8.97;5.67;;;3.70;99.90;;;;;;5019111;28;20205;-88
2021/01/24 04:13:01;;;;;;;8.03;6.00;;;3.70;99.90;;;;;;5026557;28;20209;-88
2021/01/24 04:15:32;;;;;;;9.53;6.17;;;3.70;99.90;;;;;;5026009;28;20190;-89
2021/01/24 04:18:06;;;;;;;9.33;6.80;;;3.70;99.90;;;;;;5017308;28;20236;-88
2021/01/24 04:20:37;;;;;;;10.33;6.20;;;3.70;99.90;;;;;;5024287;28;20208;-88
2021/01/24 04:23:09;;;;;;;8.40;6.17;;;3.70;99.90;;;;;;5031512;28;20202;-87
2021/01/24 04:25:44;;;;;;;9.23;6.20;;;3.70;99.90;;;;;;5030180;28;20282;-87
2021/01/24 04:28:17;;;;;;;9.67;6.70;;;3.60;99.90;;;;;;5028166;28;20212;-88
2021/01/24 04:30:49;;;;;;;13.03;7.10;;;3.70;99.90;;;;;;5022712;28;20204;-87
2021/01/24 04:33:24;;;;;;;12.53;7.87;;;3.60;99.90;;;;;;5026096;28;20194;-88
2021/01/24 04:35:55;;;;;;;11.67;6.83;;;3.60;99.90;;;;;;5026378;28;20200;-87
2021/01/24 04:38:26;;;;;;;10.43;7.30;;;3.60;99.90;;;;;;5027689;28;20214;-87
2021/01/24 04:40:59;;;;;;;14.67;7.67;;;3.60;99.90;;;;;;5023537;28;20510;-87
2021/01/24 04:43:30;;;;;;;9.33;6.63;;;3.60;99.90;;;;;;5024663;28;20248;-87
2021/01/24 04:46:02;;;;;;;10.67;6.03;;;3.60;99.90;;;;;;5024889;28;20206;-88
2021/01/24 04:48:35;;;;;;;8.13;5.63;;;3.70;99.90;;;;;;5026787;28;20206;-88
2021/01/24 04:51:07;;;;;;;9.57;6.70;;;3.60;99.90;;;;;;5023136;28;20216;-88
2021/01/24 04:53:40;;;;;;;10.27;6.30;;;3.60;99.90;;;;;;5021936;28;20210;-88
2021/01/24 04:56:12;;;;;;;9.87;6.13;;;3.60;99.90;;;;;;5017459;28;20206;-87
2021/01/24 04:58:43;;;;;;;8.53;6.03;;;3.60;99.90;;;;;;5023648;28;20233;-87
2021/01/24 05:01:18;;;;;;;8.47;5.87;;;3.60;99.90;;;;;;5027725;28;20217;-86
2021/01/24 05:03:52;;;;;;;9.77;5.63;;;3.70;99.90;;;;;;5029310;28;20216;-88
2021/01/24 05:06:23;;;;;;;7.20;5.20;;;3.70;99.90;;;;;;5029235;28;20212;-87
2021/01/24 05:08:53;;;;;;;10.07;5.87;;;3.70;99.90;;;;;;5017781;28;20209;-88
2021/01/24 05:11:23;;;;;;;7.73;5.13;;;3.70;99.90;;;;;;5019475;28;20202;-87
2021/01/24 05:13:54;;;;;;;7.40;5.10;;;3.70;99.90;;;;;;5017960;28;20268;-88
2021/01/24 05:16:25;;;;;;;6.97;5.20;;;3.60;99.90;;;;;;5017357;28;20248;-88
2021/01/24 05:19:00;;;;;;;9.33;5.30;;;3.60;99.90;;;;;;5016779;28;20286;-87
2021/01/24 05:21:33;;;;;;;9.10;5.70;;;3.60;99.90;;;;;;5014985;28;20213;-86
2021/01/24 05:24:03;;;;;;;7.97;5.70;;;3.70;99.90;;;;;;5015449;28;20202;-87
2021/01/24 05:26:34;;;;;;;7.90;5.70;;;3.70;99.90;;;;;;5015178;28;20256;-87
2021/01/24 05:29:05;;;;;;;8.80;6.33;;;3.60;99.90;;;;;;5018010;28;20202;-87
2021/01/24 05:31:36;;;;;;;9.00;6.73;;;3.60;99.90;;;;;;5014665;28;20661;-87
2021/01/24 05:34:08;;;;;;;10.33;6.50;;;3.60;99.90;;;;;;5015684;28;20209;-86
2021/01/24 05:36:43;;;;;;;8.53;5.97;;;3.60;99.90;;;;;;5016047;28;20225;-88
2021/01/24 05:39:14;;;;;;;8.47;5.73;;;3.60;99.90;;;;;;5016334;28;20259;-88
2021/01/24 05:41:49;;;;;;;9.33;6.37;;;3.60;99.90;;;;;;5012687;28;20244;-87
2021/01/24 05:44:21;;;;;;;8.83;5.93;;;3.60;99.90;;;;;;5051074;22;20236;-87
2021/01/24 05:46:54;;;;;;;8.67;5.70;;;3.60;99.90;;;;;;5035815;28;20228;-87
2021/01/24 05:49:31;;;;;;;9.27;5.63;;;3.60;99.90;;;;;;5027713;28;20279;-88
2021/01/24 05:52:04;;;;;;;8.23;6.20;;;3.60;99.90;;;;;;5023679;28;20213;-87
2021/01/24 05:54:42;;;;;;;10.30;6.43;;;3.60;99.90;;;;;;5025385;28;20218;-88
2021/01/24 05:57:15;;;;;;;10.40;6.63;;;3.60;99.90;;;;;;5022841;28;20289;-87
2021/01/24 05:59:53;;;;;;;10.83;6.33;;;3.60;99.90;;;;;;5033754;28;20197;-87
2021/01/24 06:02:24;;;;;;;9.03;6.47;;;3.60;99.90;;;;;;5041704;28;20315;-88
2021/01/24 06:04:57;;;;;;;13.10;7.07;;;3.50;99.90;;;;;;5029523;28;20205;-86
2021/01/24 06:07:27;;;;;;;10.50;6.77;;;3.50;99.90;;;;;;5036134;28;20263;-87
2021/01/24 06:09:58;;;;;;;10.93;7.47;;;3.50;99.90;;;;;;5036559;28;21156;-91
2021/01/24 06:12:30;;;;;;;9.38;6.78;;;3.60;99.90;;;;;;4721079;22;10001497;-88
2021/01/24 06:15:04;;;;;;;9.53;6.80;;;3.60;99.90;;;;;;5024054;28;20283;-88
2021/01/24 06:17:39;;;;;;;11.30;7.00;;;3.60;99.90;;;;;;5038531;28;20569;-88
2021/01/24 06:20:17;;;;;;;9.53;6.67;;;3.50;99.90;;;;;;5037953;28;20295;-88
2021/01/24 06:22:54;;;;;;;10.23;6.27;;;3.50;99.90;;;;;;5039948;28;20236;-87
2021/01/24 06:25:28;;;;;;;10.57;5.97;;;3.50;99.90;;;;;;5037983;28;20201;-88
2021/01/24 06:28:02;;;;;;;9.47;5.43;;;3.50;99.90;;;;;;5039259;28;20200;-87
2021/01/24 06:30:35;;;;;;;9.30;5.90;;;3.50;99.90;;;;;;5032117;28;20244;-88
2021/01/24 06:36:04;;;;;;;10.00;5.93;;;3.50;99.90;;;;;;5019985;28;20214;-89
2021/01/24 06:38:36;;;;;;;11.33;6.80;;;3.50;99.90;;;;;;5018992;28;20266;-89
2021/01/24 06:41:08;;;;;;;12.40;6.07;;;3.60;99.90;;;;;;5025354;28;20220;-87
2021/01/24 06:43:42;;;;;;;8.77;6.43;;;3.50;99.90;;;;;;5038061;28;20279;-88
2021/01/24 06:46:42;;;;;;;7.33;5.67;;;3.50;99.90;;;;;;5037916;28;20232;-88
2021/01/24 06:49:13;;;;;;;10.77;6.33;;;3.50;99.90;;;;;;5038637;28;20284;-88
2021/01/24 06:51:46;;;;;;;11.07;6.27;;;3.50;99.90;;;;;;5030702;28;20202;-87
2021/01/24 06:54:32;;;;;;;11.07;6.43;;;3.50;99.90;;;;;;5030636;28;20212;-87
2021/01/24 06:57:09;;;;;;;9.63;6.60;;;3.50;99.90;;;;;;5017908;28;20291;-88
2021/01/24 06:59:40;;;;;;;9.97;7.37;;;3.40;99.90;;;;;;5020603;28;20229;-88
2021/01/24 07:02:38;;;;;;;9.73;6.87;;;3.50;99.90;;;;;;5017293;28;20240;-88
2021/01/24 07:05:10;;;;;;;9.27;6.53;;;3.50;99.90;;;;;;5017904;28;20228;-87
2021/01/24 07:07:45;;;;;;;9.53;7.10;;;3.40;99.90;;;;;;5021100;28;20206;-87
2021/01/24 07:10:45;;;;;;;8.93;6.13;;;3.40;99.90;;;;;;5018590;28;20913;-87
2021/01/24 07:13:39;;;;;;;10.03;6.70;;;3.40;99.90;;;;;;5034234;28;20209;-86
2021/01/24 07:16:11;;;;;;;7.87;6.13;;;3.40;99.90;;;;;;5040143;28;20208;-89
2021/01/24 07:18:46;;;;;;;9.40;6.00;;;3.40;99.90;;;;;;5020873;28;20233;-89
2021/01/24 07:21:17;;;;;;;11.73;6.80;;;3.40;99.90;;;;;;5031537;28;20193;-90
2021/01/24 07:23:50;;;;;;;8.67;5.67;;;3.50;99.90;;;;;;5050817;28;20186;-89
2021/01/24 07:26:21;;;;;;;7.17;4.70;;;3.40;99.90;;;;;;5055148;28;20231;-87
2021/01/24 07:28:53;;;;;;;7.97;4.90;;;3.50;99.90;;;;;;5048433;28;20209;-88
2021/01/24 07:31:23;;;;;;;6.33;4.03;;;3.50;99.90;;;;;;5048143;28;20212;-86
2021/01/24 07:33:56;;;;;;;6.80;4.40;;;3.50;99.90;;;;;;5040156;28;20688;-87
2021/01/24 07:36:28;;;;;;;6.13;3.50;;;3.50;99.90;;;;;;5039912;28;20220;-88
2021/01/24 07:39:01;;;;;;;5.50;3.40;;;3.60;99.90;;;;;;5028930;28;20212;-88
2021/01/24 07:41:33;;;;;;;3.70;3.27;;;3.60;99.90;;;;;;5017513;28;20621;-89
2021/01/24 07:44:10;;;;;;;5.93;3.73;;;3.60;99.90;;;;;;5036455;28;20231;-88
2021/01/24 07:46:41;;;;;;;4.37;3.23;;;3.60;99.90;;;;;;5029700;28;20210;-87
2021/01/24 07:49:12;;;;;;;6.93;3.63;;;3.60;99.90;;;;;;5036609;28;20212;-86
2021/01/24 07:51:43;;;;;;;5.07;3.00;;;3.70;99.90;;;;;;5036241;28;20316;-88
2021/01/24 07:54:17;;;;;;;5.43;3.50;;;3.70;99.90;;;;;;5036205;28;20209;-88
2021/01/24 07:56:49;;;;;;;5.70;2.97;;;3.70;99.90;;;;;;5038616;28;20679;-88
2021/01/24 07:59:20;;;;;;;4.30;3.33;;;3.70;99.90;;;;;;5017339;28;20206;-89
2021/01/24 08:01:51;;;;;;;4.80;2.93;;;3.80;99.90;;;;;;5019182;28;20202;-90
2021/01/24 08:04:24;;;;;;;6.43;3.30;;;3.70;99.90;;;;;;5021874;28;20208;-89
2021/01/24 08:06:55;;;;;;;5.67;3.53;;;3.70;99.90;;;;;;5036978;28;20301;-88
2021/01/24 08:09:29;;;;;;;5.33;3.40;;;3.70;99.90;;;;;;5036787;28;20205;-88
2021/01/24 08:12:00;;;;;;;4.63;2.70;;;3.70;99.90;;;;;;5034762;28;20285;-88
2021/01/24 08:14:30;;;;;;;4.13;2.80;;;3.80;99.90;;;;;;5036464;28;20197;-89
2021/01/24 08:17:02;;;;;;;7.80;3.03;;;3.80;99.90;;;;;;5036282;28;20240;-88
2021/01/24 08:19:34;;;;;;;5.67;3.00;;;3.80;99.90;;;;;;5026418;28;20240;-88
2021/01/24 08:22:06;;;;;;;4.57;2.90;;;3.80;99.90;;;;;;5019426;28;20209;-87
2021/01/24 08:24:38;;;;;;;4.37;2.87;;;3.90;99.90;;;;;;5036798;28;20205;-87
2021/01/24 08:27:10;;;;;;;5.80;3.10;;;3.90;99.90;;;;;;5036922;28;20217;-87
2021/01/24 08:29:42;;;;;;;5.53;3.00;;;3.90;99.90;;;;;;5026479;28;20244;-89
2021/01/24 08:32:13;;;;;;;3.93;2.33;;;3.90;99.90;;;;;;5035185;28;20240;-88
2021/01/24 08:34:44;;;;;;;7.60;3.10;;;3.80;99.90;;;;;;5035760;28;20295;-87
2021/01/24 08:37:15;;;;;;;5.57;3.27;;;3.80;99.90;;;;;;5035961;28;20232;-88
2021/01/24 08:39:47;;;;;;;4.23;2.53;;;3.80;99.90;;;;;;5035557;28;20833;-89
2021/01/24 08:42:21;;;;;;;4.03;2.47;;;3.80;99.90;;;;;;5035049;28;20240;-87
2021/01/24 08:45:01;;;;;;;7.00;2.50;;;3.90;99.90;;;;;;5032242;28;20200;-88
2021/01/24 08:47:33;;;;;;;4.17;2.30;;;3.90;99.90;;;;;;5035916;28;20316;-88
2021/01/24 08:50:10;;;;;;;4.97;2.50;;;3.90;99.90;;;;;;5035826;28;20225;-88
2021/01/24 08:52:41;;;;;;;3.83;2.50;;;3.90;99.90;;;;;;5035570;28;20216;-88
2021/01/24 08:55:13;;;;;;;3.97;2.23;;;3.90;99.90;;;;;;5023943;28;20209;-88
2021/01/24 08:57:44;;;;;;;4.97;2.40;;;4.00;99.90;;;;;;5035529;28;20221;-88
2021/01/24 09:00:17;;;;;;;4.43;2.77;;;4.00;99.90;;;;;;5035525;28;20563;-90
2021/01/24 09:02:48;;;;;;;6.60;2.43;;;4.00;99.90;;;;;;5035845;28;20196;-88
2021/01/24 09:05:32;;;;;;;5.23;2.50;;;4.00;99.90;;;;;;5035009;28;20279;-88
2021/01/24 09:08:03;;;;;;;4.10;2.90;;;4.00;99.90;;;;;;5022339;28;20197;-90
2021/01/24 09:10:35;;;;;;;3.53;2.37;;;4.00;99.90;;;;;;5035537;28;20243;-89
2021/01/24 09:13:06;;;;;;;4.93;2.60;;;4.00;99.90;;;;;;5034113;28;20212;-89
2021/01/24 09:15:37;;;;;;;4.40;2.60;;;4.00;99.90;;;;;;5036114;28;20294;-88
2021/01/24 09:18:08;;;;;;;4.33;2.40;;;4.00;99.90;;;;;;5018617;28;20229;-88
2021/01/24 09:20:39;;;;;;;5.20;2.93;;;4.00;99.90;;;;;;5018713;28;20216;-89
2021/01/24 09:23:10;;;;;;;4.37;2.57;;;4.00;99.90;;;;;;5036164;28;20291;-88
2021/01/24 09:25:42;;;;;;;5.53;2.67;;;4.00;99.90;;;;;;5035851;28;20259;-88
2021/01/24 09:28:13;;;;;;;4.17;2.30;;;4.00;99.90;;;;;;5036275;28;20249;-88
2021/01/24 09:30:44;;;;;;;4.17;2.30;;;4.00;99.90;;;;;;5035698;28;20390;-87
2021/01/24 09:33:15;;;;;;;3.30;2.33;;;4.00;99.90;;;;;;5037015;28;20208;-87
2021/01/24 09:35:47;;;;;;;4.20;2.37;;;4.00;99.90;;;;;;5048783;28;20391;-88
2021/01/24 09:38:17;;;;;;;4.40;2.50;;;4.00;99.90;;;;;;5050687;28;20251;-89
2021/01/24 09:40:49;;;;;;;5.83;2.67;;;4.00;99.90;;;;;;5034390;28;20212;-88
2021/01/24 09:43:20;;;;;;;9.07;2.60;;;4.00;99.90;;;;;;5035193;28;20268;-88
2021/01/24 09:45:51;;;;;;;5.53;2.40;;;4.00;99.90;;;;;;5037818;28;20196;-88
2021/01/24 09:48:22;;;;;;;5.93;2.80;;;3.90;99.90;;;;;;5032038;28;20220;-87
2021/01/24 09:50:53;;;;;;;6.80;2.50;;;3.90;99.90;;;;;;5035255;28;20205;-88
2021/01/24 09:53:24;;;;;;;4.43;2.57;;;4.00;99.90;;;;;;5035563;28;20203;-87
2021/01/24 09:55:56;;;;;;;3.53;2.20;;;4.00;99.90;;;;;;5035578;28;20236;-87
2021/01/24 09:58:26;;;;;;;4.00;2.40;;;4.10;99.90;;;;;;5031621;28;20238;-87
2021/01/24 10:00:56;;;;;;;3.40;2.40;;;4.00;99.90;;;;;;5025985;28;20201;-85
2021/01/24 10:03:27;;;;;;;5.63;2.10;;;4.00;99.90;;;;;;5035215;28;20205;-88
2021/01/24 10:05:58;;;;;;;3.63;1.97;;;4.00;99.90;;;;;;5035049;28;20209;-88
2021/01/24 10:08:29;;;;;;;3.30;2.10;;;4.00;99.90;;;;;;5038386;28;20205;-88
2021/01/24 10:11:01;;;;;;;5.27;2.20;;;4.10;99.90;;;;;;5034171;28;20233;-88
2021/01/24 10:13:31;;;;;;;2.73;2.00;;;4.10;99.90;;;;;;5033634;28;20205;-88
2021/01/24 10:16:03;;;;;;;4.90;2.43;;;4.10;99.90;;;;;;5023764;28;20199;-87
2021/01/24 10:18:33;;;;;;;4.10;1.93;;;4.10;99.90;;;;;;5032615;28;20229;-88
2021/01/24 10:21:04;;;;;;;3.27;1.77;;;4.00;99.90;;;;;;5034190;28;20212;-87
2021/01/24 10:23:35;;;;;;;3.00;1.80;;;4.00;99.90;;;;;;5024256;28;20599;-89
2021/01/24 10:26:08;;;;;;;3.37;1.80;;;4.00;99.90;;;;;;5020932;28;20193;-88
2021/01/24 10:28:39;;;;;;;2.40;1.73;;;4.00;99.90;;;;;;5018399;28;20344;-87
2021/01/24 10:31:10;;;;;;;4.43;1.80;;;4.00;99.90;;;;;;5021624;28;20220;-87
2021/01/24 10:33:40;;;;;;;1.63;1.37;;;3.90;99.90;;;;;;5033415;28;20240;-88
2021/01/24 10:36:11;;;;;;;3.27;1.80;;;3.90;99.90;;;;;;5034985;28;20220;-89
2021/01/24 10:38:43;;;;;;;3.93;2.40;;;3.80;99.90;;;;;;5037993;28;20239;-88
2021/01/24 10:41:15;;;;;;;3.43;2.07;;;3.70;99.90;;;;;;5037274;28;20633;-90
2021/01/24 10:43:46;;;;;;;5.43;2.30;;;3.60;99.90;;;;;;5037484;28;20222;-89
2021/01/24 10:46:33;;;;;;;5.20;2.17;;;3.50;99.90;;;;;;5038957;28;20269;-89
2021/01/24 10:49:04;;;;;;;7.13;2.00;;;3.50;99.90;;;;;;5037801;28;20751;-92
2021/01/24 10:51:34;;;;;;;3.30;2.00;;;3.50;99.90;;;;;;5037198;28;20239;-90
2021/01/24 10:54:05;;;;;;;4.63;2.20;;;3.50;99.90;;;;;;5038349;28;20209;-88
2021/01/24 10:56:37;;;;;;;5.43;2.27;;;3.50;99.90;;;;;;5038520;28;20216;-89
2021/01/24 10:59:12;;;;;;;2.87;1.73;;;3.50;99.90;;;;;;5026022;28;20235;-90
2021/01/24 11:01:45;;;;;;;4.37;1.90;;;3.50;99.90;;;;;;5017984;28;20209;-90
2021/01/24 11:04:16;;;;;;;6.10;2.13;;;3.50;99.90;;;;;;5019004;28;20210;-88
2021/01/24 11:06:47;;;;;;;4.40;1.70;;;3.50;99.90;;;;;;5037118;28;20292;-89
2021/01/24 11:09:20;;;;;;;2.87;1.97;;;3.50;99.90;;;;;;5039675;28;20208;-89
2021/01/24 11:11:52;;;;;;;4.97;2.07;;;3.50;99.90;;;;;;5037225;28;20241;-87
2021/01/24 11:14:23;;;;;;;2.73;1.90;;;3.40;99.90;;;;;;5034928;28;20213;-87
2021/01/24 11:16:53;;;;;;;3.07;1.97;;;3.30;99.90;;;;;;5027746;28;20205;-90
2021/01/24 11:19:24;;;;;;;4.33;1.77;;;3.20;99.90;;;;;;5037702;28;20265;-89
2021/01/24 11:21:55;;;;;;;4.93;1.67;;;3.20;99.90;;;;;;5036603;28;20243;-89
2021/01/24 11:24:26;;;;;;;4.83;1.90;;;3.30;99.90;;;;;;5035103;28;20232;-88
2021/01/24 11:26:58;;;;;;;3.00;1.63;;;3.40;99.90;;;;;;5017458;28;20224;-88
2021/01/24 11:29:28;;;;;;;3.80;1.87;;;3.30;99.90;;;;;;5026855;28;20208;-88
2021/01/24 11:31:58;;;;;;;3.17;1.90;;;3.30;99.90;;;;;;5036862;28;20244;-88
2021/01/24 11:34:30;;;;;;;6.30;1.90;;;3.40;99.90;;;;;;5036773;28;20263;-88
2021/01/24 11:37:01;;;;;;;3.20;2.00;;;3.40;99.90;;;;;;5037409;28;20216;-88
2021/01/24 11:39:32;;;;;;;5.10;2.07;;;3.30;99.90;;;;;;5037323;28;20263;-89
2021/01/24 11:42:05;;;;;;;4.40;1.97;;;3.30;99.90;;;;;;5037605;28;20692;-89
2021/01/24 11:44:35;;;;;;;3.23;1.80;;;3.20;99.90;;;;;;5037465;28;20229;-88
2021/01/24 11:47:06;;;;;;;4.53;2.07;;;3.20;99.90;;;;;;5041878;28;20208;-89
2021/01/24 11:49:37;;;;;;;5.83;2.00;;;3.20;99.90;;;;;;5044926;28;20220;-89
2021/01/24 11:52:08;;;;;;;3.03;1.97;;;3.20;99.90;;;;;;5027961;28;20214;-88
2021/01/24 11:54:39;;;;;;;3.20;1.73;;;3.20;99.90;;;;;;5033479;28;20225;-88
2021/01/24 11:57:10;;;;;;;4.07;2.03;;;3.30;99.90;;;;;;5060109;22;20371;-88
2021/01/24 11:59:43;;;;;;;2.97;2.17;;;3.30;99.90;;;;;;5018631;28;20674;-87
2021/01/24 12:02:15;;;;;;;5.23;2.00;;;3.30;99.90;;;;;;5017321;28;20213;-87
2021/01/24 12:04:46;;;;;;;4.67;1.77;;;3.40;99.90;;;;;;5017083;28;20244;-88
2021/01/24 12:07:17;;;;;;;2.63;1.67;;;3.30;99.90;;;;;;5017023;28;20248;-87
2021/01/24 12:09:47;;;;;;;4.23;1.97;;;3.40;99.90;;;;;;5016958;28;20206;-88
2021/01/24 12:12:19;;;;;;;5.10;2.00;;;3.40;99.90;;;;;;5015913;28;20198;-87
2021/01/24 12:14:50;;;;;;;3.63;1.70;;;3.50;99.90;;;;;;5015396;28;20256;-87
2021/01/24 12:17:25;;;;;;;3.63;1.70;;;3.40;99.90;;;;;;4997370;28;20217;-90
2021/01/24 12:19:56;;;;;;;2.60;1.47;;;3.50;99.90;;;;;;5016732;28;20224;-87
2021/01/24 12:22:26;;;;;;;3.90;1.93;;;3.50;99.90;;;;;;5012662;28;20238;-87
2021/01/24 12:24:57;;;;;;;3.13;1.43;;;3.50;99.90;;;;;;4997269;28;20721;-87
2021/01/24 12:27:30;;;;;;;2.37;1.53;;;3.50;99.90;;;;;;5007098;28;20210;-87
2021/01/24 12:30:01;;;;;;;3.20;2.27;;;3.60;99.90;;;;;;5015132;28;20210;-89
2021/01/24 12:32:31;;;;;;;4.97;1.73;;;3.60;99.90;;;;;;5016032;28;20229;-88
2021/01/24 12:35:02;;;;;;;6.30;1.80;;;3.60;99.90;;;;;;5016078;28;20224;-87
2021/01/24 12:37:34;;;;;;;5.57;1.77;;;3.60;99.90;;;;;;5016371;28;20260;-87
2021/01/24 12:40:05;;;;;;;3.37;1.80;;;3.60;99.90;;;;;;5023265;28;20242;-88
2021/01/24 12:42:37;;;;;;;3.50;1.40;;;3.60;99.90;;;;;;5016052;28;20327;-87
2021/01/24 12:45:09;;;;;;;5.00;1.80;;;3.60;99.90;;;;;;5016110;28;20217;-87
2021/01/24 12:47:39;;;;;;;3.13;1.27;;;3.60;99.90;;;;;;5016023;28;20256;-87
2021/01/24 12:50:12;;;;;;;1.77;1.27;;;3.60;99.90;;;;;;5015197;28;20219;-87
2021/01/24 12:52:42;;;;;;;2.03;1.23;;;3.60;99.90;;;;;;5015554;28;20236;-87
2021/01/24 12:55:13;;;;;;;3.30;1.70;;;3.50;99.90;;;;;;4996305;28;20272;-87
2021/01/24 12:57:46;;;;;;;2.63;1.70;;;3.60;99.90;;;;;;4994804;28;20360;-88
2021/01/24 13:00:17;;;;;;;4.37;1.40;;;3.60;99.90;;;;;;4994241;28;20233;-88
2021/01/24 13:02:48;;;;;;;2.60;1.20;;;3.50;99.90;;;;;;5006732;28;20209;-88
2021/01/24 13:05:19;;;;;;;2.60;1.30;;;3.50;99.90;;;;;;5016966;28;20818;-86
2021/01/24 13:07:50;;;;;;;2.23;1.00;;;3.50;99.90;;;;;;5018782;28;20197;-88
2021/01/24 13:10:21;;;;;;;5.53;1.83;;;3.50;99.90;;;;;;5014281;28;20609;-87
2021/01/24 13:12:57;;;;;;;2.63;1.20;;;3.50;99.90;;;;;;4995304;28;20599;-86
2021/01/24 13:15:28;;;;;;;3.03;1.43;;;3.50;99.90;;;;;;5040157;22;20275;-88
2021/01/24 13:17:58;;;;;;;4.10;1.50;;;3.50;99.90;;;;;;5015848;28;20237;-88
2021/01/24 13:20:29;;;;;;;4.97;1.57;;;3.50;99.90;;;;;;5015712;28;20305;-87
2021/01/24 13:23:00;;;;;;;2.10;1.20;;;3.50;99.90;;;;;;5015372;28;20233;-88
2021/01/24 13:25:32;;;;;;;5.93;2.20;;;3.50;99.90;;;;;;5016679;28;20636;-87
2021/01/24 13:28:04;;;;;;;1.80;1.20;;;3.50;99.90;;;;;;5015667;28;20240;-88
2021/01/24 13:30:35;;;;;;;3.17;1.50;;;3.50;99.90;;;;;;4995054;28;20747;-88
2021/01/24 13:33:07;;;;;;;1.70;1.27;;;3.50;99.90;;;;;;5010929;28;20498;-88
2021/01/24 13:35:37;;;;;;;5.33;1.80;;;3.50;99.90;;;;;;5016089;28;20209;-88
2021/01/24 13:38:08;;;;;;;5.07;1.80;;;3.50;99.90;;;;;;4998161;28;20236;-88
2021/01/24 13:40:39;;;;;;;4.13;1.90;;;3.50;99.90;;;;;;5015626;28;20209;-88